• Join FlightAware (Why Join?)
  • Login
  • US Flag GB Flag 
10:10 EST


 

Airport Tracker/Info


-or-


 

Live Flight TrackerFlight Track Log ✈ EJA929 ✈ 18-May-2013 ✈ KPDK - KVKS

Flight Track Log - Related Links

Times and Time Zones

All times are in EDT time to prevent confusion due to time zone crossing. See the EJA929 flight status page for this flight to view local times or setup timezone preferences in your user account.

Time Position Orientation Groundspeed Altitude Reporting Facility
EDT Latitude Longitude Course Direction KTS MPH feet Rate Location/Type
09:07 33.8500 -84.3333 287° West 203 234 3,100  Level Atlanta TRACON
09:08 33.8667 -84.4000 287° West 200 230 4,800 950 Climbing Atlanta TRACON
09:09 33.8500 -84.4833 256° West 209 241 5,000 346 Climbing Atlanta TRACON
09:11 33.8389 -84.6292 265° West 212 244 6,000 621 Climbing Atlanta Center
09:12 33.8217 -84.7039 255° West 227 261 7,100 2,200 Climbing Atlanta Center
09:13 33.8025 -84.7889 255° West 258 297 10,400 3,300 Climbing Atlanta Center
09:14 33.7747 -84.8811 250° West 269 310 13,700 2,150 Climbing Atlanta Center
09:15 33.7344 -84.9706 242° Southwest 287 330 14,700 1,350 Climbing Atlanta Center
09:16 33.7419 -85.0806 275° West 322 371 16,400 1,750 Climbing Atlanta Center
09:17 33.7575 -85.1956 279° West 336 387 18,200 1,800 Climbing Atlanta Center
09:18 33.7814 -85.3111 284° West 351 404 20,000 1,850 Climbing Atlanta Center
09:19 33.8072 -85.4289 285° West 365 420 21,900 1,550 Climbing Atlanta Center
09:20 33.8331 -85.5569 284° West 379 436 23,100 1,350 Climbing Atlanta Center
09:21 33.8625 -85.6875 285° West 402 463 24,600 1,500 Climbing Atlanta Center
09:22 33.8900 -85.8206 284° West 413 475 26,100 1,500 Climbing Atlanta Center
09:23 33.9192 -85.9564 285° West 413 475 27,600 950 Climbing Atlanta Center
09:24 33.9106 -86.0989 266° West 412 474 28,000 200 Climbing Atlanta Center
09:25 33.8414 -86.2372 239° Southwest 437 503 28,000  Level Atlanta Center
09:26 33.7783 -86.3731 241° Southwest 455 524 28,000  Level Atlanta Center
09:27 33.7317 -86.5167 249° West 461 531 28,000  Level Atlanta Center
09:28 33.6828 -86.6675 249° West 474 545 28,000  Level Atlanta Center
09:29 33.6356 -86.8208 250° West 486 559 28,000  Level Atlanta Center
09:30 33.5883 -86.9639 248° West 486 559 28,000  Level Atlanta Center
09:31 33.5431 -87.1069 249° West 480 552 28,000  Level Atlanta Center
09:32 33.4958 -87.2447 248° West 463 533 28,000  Level Atlanta Center
09:33 33.4544 -87.3819 250° West 458 527 28,000  Level Memphis Center
09:34 33.4097 -87.5203 249° West 450 518 28,000  Level Memphis Center
09:35 33.3647 -87.6561 248° West 445 512 28,000  Level Memphis Center
09:36 33.3194 -87.7867 247° West 439 505 28,000  Level Memphis Center
09:37 33.2806 -87.9169 250° West 432 497 28,000  Level Memphis Center
09:38 33.2369 -88.0450 248° West 426 490 28,000  Level Memphis Center
09:39 33.1914 -88.1753 247° West 426 490 28,000  Level Memphis Center
09:40 33.1558 -88.2978 251° West 426 490 28,000  Level Memphis Center
09:41 33.1142 -88.4325 250° West 431 496 28,000  Level Memphis Center
09:42 33.0681 -88.5625 247° West 431 496 28,000  Level Memphis Center
09:43 33.0239 -88.6922 248° West 431 496 28,000  Level Memphis Center
09:44 32.9797 -88.8219 248° West 431 496 28,000  Level Memphis Center
09:45 32.9333 -88.9539 247° West 431 496 28,000  Level Memphis Center
09:46 32.8886 -89.0833 248° West 431 496 28,000  Level Memphis Center
09:47 32.8442 -89.2150 248° West 431 496 28,000  Level Memphis Center
09:48 32.7992 -89.3464 248° West 431 496 28,000  Level Memphis Center
09:49 32.7522 -89.4756 247° West 431 496 28,000  Level Memphis Center
09:50 32.7072 -89.6117 249° West 436 502 28,000 -900 Level Memphis Center
09:51 32.6578 -89.7428 246° West 436 502 26,200 -2,300 Descending Memphis Center
09:52 32.5917 -89.8814 241° Southwest 458 527 23,400 900 Descending Memphis Center
09:53 32.5275 -90.0100 239° Southwest 465 535 28,000 -3,150 Climbing Memphis Center
09:54 32.4672 -90.1308 239° Southwest 452 520 17,100 -6,750 Descending Memphis Center
09:55 32.4089 -90.2442 239° Southwest 429 494 14,500 -2,600 Descending Memphis Center
09:56 32.3567 -90.3475 239° Southwest 400 460 11,900 -1,950 Descending Memphis Center
09:57 32.3086 -90.4433 239° Southwest 371 427 10,600 -1,550 Descending Memphis Center
09:58 32.2669 -90.5219 238° Southwest 328 377 8,800 -2,300 Descending Memphis Center
09:59 32.2311 -90.5956 240° Southwest 285 328 6,000 -2,750 Descending Memphis Center
10:00 32.1936 -90.6667 238° Southwest 269 310 3,300 -1,800 Descending Memphis Center
10:01 32.1642 -90.7328 242° Southwest 247 284 2,400 -900 Descending Memphis Center